sensor_id;sensor_type;location;lat;lon;timestamp;temperature;humidity
67249;SHT31;63247;54.300;18.592;2023-04-23T00:00:47;8.77;84.26
67249;SHT31;63247;54.300;18.592;2023-04-23T00:03:13;8.78;84.12
67249;SHT31;63247;54.300;18.592;2023-04-23T00:05:39;8.82;83.81
67249;SHT31;63247;54.300;18.592;2023-04-23T00:08:07;8.89;83.38
67249;SHT31;63247;54.300;18.592;2023-04-23T00:10:32;8.92;83.00
67249;SHT31;63247;54.300;18.592;2023-04-23T00:12:58;8.93;82.94
67249;SHT31;63247;54.300;18.592;2023-04-23T00:15:24;8.89;82.88
67249;SHT31;63247;54.300;18.592;2023-04-23T00:17:49;8.85;82.83
67249;SHT31;63247;54.300;18.592;2023-04-23T00:20:15;8.82;82.64
67249;SHT31;63247;54.300;18.592;2023-04-23T00:22:42;8.78;82.66
67249;SHT31;63247;54.300;18.592;2023-04-23T00:25:11;8.85;82.29
67249;SHT31;63247;54.300;18.592;2023-04-23T00:27:36;8.82;82.24
67249;SHT31;63247;54.300;18.592;2023-04-23T00:30:03;8.82;82.13
67249;SHT31;63247;54.300;18.592;2023-04-23T00:32:28;8.93;81.54
67249;SHT31;63247;54.300;18.592;2023-04-23T00:34:54;8.98;81.49
67249;SHT31;63247;54.300;18.592;2023-04-23T00:37:21;8.93;81.44
67249;SHT31;63247;54.300;18.592;2023-04-23T00:39:46;8.89;81.57
67249;SHT31;63247;54.300;18.592;2023-04-23T00:42:12;8.81;81.93
67249;SHT31;63247;54.300;18.592;2023-04-23T00:44:38;8.51;82.74
67249;SHT31;63247;54.300;18.592;2023-04-23T00:47:05;8.54;82.59
67249;SHT31;63247;54.300;18.592;2023-04-23T00:49:32;8.63;82.29
67249;SHT31;63247;54.300;18.592;2023-04-23T00:51:58;8.69;81.95
67249;SHT31;63247;54.300;18.592;2023-04-23T00:54:24;8.64;82.09
67249;SHT31;63247;54.300;18.592;2023-04-23T00:56:50;8.65;82.01
67249;SHT31;63247;54.300;18.592;2023-04-23T00:59:16;8.56;82.22
67249;SHT31;63247;54.300;18.592;2023-04-23T01:01:42;8.60;82.10
67249;SHT31;63247;54.300;18.592;2023-04-23T01:04:11;8.69;81.75
67249;SHT31;63247;54.300;18.592;2023-04-23T01:06:37;8.68;81.97
67249;SHT31;63247;54.300;18.592;2023-04-23T01:09:03;8.65;81.83
67249;SHT31;63247;54.300;18.592;2023-04-23T01:11:31;8.57;82.08
67249;SHT31;63247;54.300;18.592;2023-04-23T01:13:57;8.72;81.70
67249;SHT31;63247;54.300;18.592;2023-04-23T01:16:23;8.74;81.64
67249;SHT31;63247;54.300;18.592;2023-04-23T01:18:48;8.71;81.53
67249;SHT31;63247;54.300;18.592;2023-04-23T01:21:15;8.61;81.64
67249;SHT31;63247;54.300;18.592;2023-04-23T01:23:41;8.56;81.90
67249;SHT31;63247;54.300;18.592;2023-04-23T01:26:06;8.53;82.03
67249;SHT31;63247;54.300;18.592;2023-04-23T01:28:32;8.36;82.41
67249;SHT31;63247;54.300;18.592;2023-04-23T01:30:59;8.47;82.17
67249;SHT31;63247;54.300;18.592;2023-04-23T01:33:25;8.39;82.34
67249;SHT31;63247;54.300;18.592;2023-04-23T01:35:51;8.40;82.43
67249;SHT31;63247;54.300;18.592;2023-04-23T01:38:18;8.43;82.30
67249;SHT31;63247;54.300;18.592;2023-04-23T01:40:44;8.50;82.24
67249;SHT31;63247;54.300;18.592;2023-04-23T01:43:09;8.57;81.88
67249;SHT31;63247;54.300;18.592;2023-04-23T01:45:35;8.58;81.91
67249;SHT31;63247;54.300;18.592;2023-04-23T01:48:00;8.68;81.53
67249;SHT31;63247;54.300;18.592;2023-04-23T01:50:26;8.61;81.77
67249;SHT31;63247;54.300;18.592;2023-04-23T01:52:53;8.44;82.16
67249;SHT31;63247;54.300;18.592;2023-04-23T01:55:18;8.48;82.06
67249;SHT31;63247;54.300;18.592;2023-04-23T01:57:45;8.50;82.08
67249;SHT31;63247;54.300;18.592;2023-04-23T02:00:12;8.46;82.26
67249;SHT31;63247;54.300;18.592;2023-04-23T02:02:39;8.36;82.36
67249;SHT31;63247;54.300;18.592;2023-04-23T02:05:13;8.40;82.09
67249;SHT31;63247;54.300;18.592;2023-04-23T02:07:39;8.34;82.42
67249;SHT31;63247;54.300;18.592;2023-04-23T02:10:05;8.34;82.38
67249;SHT31;63247;54.300;18.592;2023-04-23T02:12:32;8.29;82.61
67249;SHT31;63247;54.300;18.592;2023-04-23T02:14:57;8.23;83.04
67249;SHT31;63247;54.300;18.592;2023-04-23T02:17:22;8.16;83.05
67249;SHT31;63247;54.300;18.592;2023-04-23T02:19:48;8.10;83.15
67249;SHT31;63247;54.300;18.592;2023-04-23T02:22:15;8.27;82.78
67249;SHT31;63247;54.300;18.592;2023-04-23T02:24:40;8.37;82.36
67249;SHT31;63247;54.300;18.592;2023-04-23T02:27:07;8.50;82.18
67249;SHT31;63247;54.300;18.592;2023-04-23T02:29:33;8.44;82.24
67249;SHT31;63247;54.300;18.592;2023-04-23T02:31:59;8.51;82.06
67249;SHT31;63247;54.300;18.592;2023-04-23T02:34:24;8.46;82.04
67249;SHT31;63247;54.300;18.592;2023-04-23T02:36:49;8.34;82.52
67249;SHT31;63247;54.300;18.592;2023-04-23T02:39:15;8.29;82.76
67249;SHT31;63247;54.300;18.592;2023-04-23T02:41:40;8.16;83.07
67249;SHT31;63247;54.300;18.592;2023-04-23T02:44:06;8.17;82.98
67249;SHT31;63247;54.300;18.592;2023-04-23T02:46:31;8.26;82.86
67249;SHT31;63247;54.300;18.592;2023-04-23T02:48:57;8.40;82.51
67249;SHT31;63247;54.300;18.592;2023-04-23T02:51:22;8.25;82.90
67249;SHT31;63247;54.300;18.592;2023-04-23T02:53:48;8.23;83.11
67249;SHT31;63247;54.300;18.592;2023-04-23T02:56:13;8.25;83.08
67249;SHT31;63247;54.300;18.592;2023-04-23T02:58:39;8.30;82.91
67249;SHT31;63247;54.300;18.592;2023-04-23T03:01:04;8.16;83.15
67249;SHT31;63247;54.300;18.592;2023-04-23T03:03:31;8.06;83.67
67249;SHT31;63247;54.300;18.592;2023-04-23T03:05:58;7.99;83.74
67249;SHT31;63247;54.300;18.592;2023-04-23T03:08:24;7.89;84.15
67249;SHT31;63247;54.300;18.592;2023-04-23T03:10:49;7.79;84.74
67249;SHT31;63247;54.300;18.592;2023-04-23T03:13:15;7.81;84.59
67249;SHT31;63247;54.300;18.592;2023-04-23T03:15:40;7.72;84.74
67249;SHT31;63247;54.300;18.592;2023-04-23T03:18:06;7.86;84.29
67249;SHT31;63247;54.300;18.592;2023-04-23T03:20:33;7.85;84.24
67249;SHT31;63247;54.300;18.592;2023-04-23T03:22:58;7.71;84.79
67249;SHT31;63247;54.300;18.592;2023-04-23T03:25:24;7.46;85.33
67249;SHT31;63247;54.300;18.592;2023-04-23T03:27:50;7.35;86.03
67249;SHT31;63247;54.300;18.592;2023-04-23T03:30:16;7.33;86.01
67249;SHT31;63247;54.300;18.592;2023-04-23T03:32:41;7.28;86.14
67249;SHT31;63247;54.300;18.592;2023-04-23T03:35:07;7.40;85.92
67249;SHT31;63247;54.300;18.592;2023-04-23T03:37:33;7.46;85.68
67249;SHT31;63247;54.300;18.592;2023-04-23T03:39:59;7.61;85.33
67249;SHT31;63247;54.300;18.592;2023-04-23T03:42:27;7.95;84.35
67249;SHT31;63247;54.300;18.592;2023-04-23T03:44:53;8.19;83.46
67249;SHT31;63247;54.300;18.592;2023-04-23T03:47:18;8.40;82.99
67249;SHT31;63247;54.300;18.592;2023-04-23T03:49:43;8.75;82.04
67249;SHT31;63247;54.300;18.592;2023-04-23T03:52:09;8.92;81.54
67249;SHT31;63247;54.300;18.592;2023-04-23T03:54:34;8.82;81.63
67249;SHT31;63247;54.300;18.592;2023-04-23T03:57:00;9.11;81.34
67249;SHT31;63247;54.300;18.592;2023-04-23T03:59:26;9.40;80.35
67249;SHT31;63247;54.300;18.592;2023-04-23T04:01:51;9.84;78.96
67249;SHT31;63247;54.300;18.592;2023-04-23T04:04:16;10.09;78.16
67249;SHT31;63247;54.300;18.592;2023-04-23T04:06:42;10.12;78.20
67249;SHT31;63247;54.300;18.592;2023-04-23T04:09:07;10.05;78.70
67249;SHT31;63247;54.300;18.592;2023-04-23T04:11:33;9.87;79.00
67249;SHT31;63247;54.300;18.592;2023-04-23T04:13:59;9.91;79.17
67249;SHT31;63247;54.300;18.592;2023-04-23T04:16:24;10.22;78.48
67249;SHT31;63247;54.300;18.592;2023-04-23T04:18:50;10.33;77.78
67249;SHT31;63247;54.300;18.592;2023-04-23T04:21:15;10.71;76.66
67249;SHT31;63247;54.300;18.592;2023-04-23T04:23:44;11.25;74.24
67249;SHT31;63247;54.300;18.592;2023-04-23T04:26:09;11.52;74.13
67249;SHT31;63247;54.300;18.592;2023-04-23T04:28:35;11.56;74.40
67249;SHT31;63247;54.300;18.592;2023-04-23T04:31:02;11.97;73.84
67249;SHT31;63247;54.300;18.592;2023-04-23T04:33:27;12.35;72.72
67249;SHT31;63247;54.300;18.592;2023-04-23T04:35:55;12.64;72.15
67249;SHT31;63247;54.300;18.592;2023-04-23T04:38:20;13.27;69.77
67249;SHT31;63247;54.300;18.592;2023-04-23T04:40:46;13.60;68.74
67249;SHT31;63247;54.300;18.592;2023-04-23T04:43:13;13.54;68.73
67249;SHT31;63247;54.300;18.592;2023-04-23T04:45:40;13.46;69.86
67249;SHT31;63247;54.300;18.592;2023-04-23T04:48:06;13.85;68.56
67249;SHT31;63247;54.300;18.592;2023-04-23T04:50:32;13.71;68.87
67249;SHT31;63247;54.300;18.592;2023-04-23T04:52:58;13.82;68.92
67249;SHT31;63247;54.300;18.592;2023-04-23T04:55:23;14.61;66.91
67249;SHT31;63247;54.300;18.592;2023-04-23T04:57:48;14.78;66.22
67249;SHT31;63247;54.300;18.592;2023-04-23T05:00:21;14.98;65.54
67249;SHT31;63247;54.300;18.592;2023-04-23T05:02:48;14.98;65.12
67249;SHT31;63247;54.300;18.592;2023-04-23T05:05:14;14.92;66.52
67249;SHT31;63247;54.300;18.592;2023-04-23T05:07:40;15.43;65.68
67249;SHT31;63247;54.300;18.592;2023-04-23T05:10:05;15.57;64.86
67249;SHT31;63247;54.300;18.592;2023-04-23T05:12:31;15.12;66.63
67249;SHT31;63247;54.300;18.592;2023-04-23T05:14:56;15.71;65.37
67249;SHT31;63247;54.300;18.592;2023-04-23T05:17:22;15.70;64.58
67249;SHT31;63247;54.300;18.592;2023-04-23T05:19:47;15.53;64.11
67249;SHT31;63247;54.300;18.592;2023-04-23T05:22:13;15.73;63.81
67249;SHT31;63247;54.300;18.592;2023-04-23T05:24:39;15.89;62.63
67249;SHT31;63247;54.300;18.592;2023-04-23T05:27:04;15.69;63.06
67249;SHT31;63247;54.300;18.592;2023-04-23T05:29:30;15.64;63.56
67249;SHT31;63247;54.300;18.592;2023-04-23T05:31:55;15.50;64.56
67249;SHT31;63247;54.300;18.592;2023-04-23T05:34:21;15.79;63.52
67249;SHT31;63247;54.300;18.592;2023-04-23T05:36:46;16.21;61.87
67249;SHT31;63247;54.300;18.592;2023-04-23T05:39:11;16.26;62.55
67249;SHT31;63247;54.300;18.592;2023-04-23T05:41:37;16.08;61.69
67249;SHT31;63247;54.300;18.592;2023-04-23T05:44:02;16.08;63.31
67249;SHT31;63247;54.300;18.592;2023-04-23T05:46:28;15.80;63.54
67249;SHT31;63247;54.300;18.592;2023-04-23T05:48:53;16.86;62.06
67249;SHT31;63247;54.300;18.592;2023-04-23T05:51:19;16.84;59.96
67249;SHT31;63247;54.300;18.592;2023-04-23T05:53:44;16.99;59.97
67249;SHT31;63247;54.300;18.592;2023-04-23T05:56:09;16.66;59.67
67249;SHT31;63247;54.300;18.592;2023-04-23T05:58:35;17.10;60.42
67249;SHT31;63247;54.300;18.592;2023-04-23T06:01:03;17.52;59.26
67249;SHT31;63247;54.300;18.592;2023-04-23T06:03:29;16.83;60.20
67249;SHT31;63247;54.300;18.592;2023-04-23T06:05:54;17.82;59.84
67249;SHT31;63247;54.300;18.592;2023-04-23T06:08:20;18.37;57.00
67249;SHT31;63247;54.300;18.592;2023-04-23T06:10:45;17.59;58.56
67249;SHT31;63247;54.300;18.592;2023-04-23T06:13:11;17.24;59.43
67249;SHT31;63247;54.300;18.592;2023-04-23T06:15:37;17.69;58.67
67249;SHT31;63247;54.300;18.592;2023-04-23T06:18:02;17.73;58.59
67249;SHT31;63247;54.300;18.592;2023-04-23T06:20:28;18.20;58.13
67249;SHT31;63247;54.300;18.592;2023-04-23T06:22:54;18.06;58.14
67249;SHT31;63247;54.300;18.592;2023-04-23T06:25:19;18.50;57.19
67249;SHT31;63247;54.300;18.592;2023-04-23T06:27:45;18.58;56.84
67249;SHT31;63247;54.300;18.592;2023-04-23T06:30:11;18.13;56.74
67249;SHT31;63247;54.300;18.592;2023-04-23T06:32:36;18.21;57.35
67249;SHT31;63247;54.300;18.592;2023-04-23T06:35:02;19.24;56.10
67249;SHT31;63247;54.300;18.592;2023-04-23T06:37:28;19.40;54.89
67249;SHT31;63247;54.300;18.592;2023-04-23T06:39:56;19.23;55.97
67249;SHT31;63247;54.300;18.592;2023-04-23T06:42:22;19.74;56.14
67249;SHT31;63247;54.300;18.592;2023-04-23T06:44:47;19.17;56.80
67249;SHT31;63247;54.300;18.592;2023-04-23T06:47:13;19.70;54.97
67249;SHT31;63247;54.300;18.592;2023-04-23T06:49:39;19.56;56.58
67249;SHT31;63247;54.300;18.592;2023-04-23T06:52:04;19.64;55.51
67249;SHT31;63247;54.300;18.592;2023-04-23T06:54:31;19.77;55.88
67249;SHT31;63247;54.300;18.592;2023-04-23T06:56:56;20.06;53.54
67249;SHT31;63247;54.300;18.592;2023-04-23T06:59:22;20.21;54.62
67249;SHT31;63247;54.300;18.592;2023-04-23T07:01:47;20.26;55.17
67249;SHT31;63247;54.300;18.592;2023-04-23T07:04:13;20.16;55.19
67249;SHT31;63247;54.300;18.592;2023-04-23T07:06:38;19.45;55.80
67249;SHT31;63247;54.300;18.592;2023-04-23T07:09:04;20.28;54.50
67249;SHT31;63247;54.300;18.592;2023-04-23T07:11:30;20.79;52.00
67249;SHT31;63247;54.300;18.592;2023-04-23T07:13:56;20.37;53.49
67249;SHT31;63247;54.300;18.592;2023-04-23T07:16:22;21.24;53.61
67249;SHT31;63247;54.300;18.592;2023-04-23T07:18:48;21.69;51.96
67249;SHT31;63247;54.300;18.592;2023-04-23T07:21:14;20.50;53.26
67249;SHT31;63247;54.300;18.592;2023-04-23T07:23:39;21.25;52.76
67249;SHT31;63247;54.300;18.592;2023-04-23T07:26:05;22.34;52.83
67249;SHT31;63247;54.300;18.592;2023-04-23T07:28:30;22.43;51.72
67249;SHT31;63247;54.300;18.592;2023-04-23T07:30:57;22.35;50.74
67249;SHT31;63247;54.300;18.592;2023-04-23T07:33:22;22.44;50.47
67249;SHT31;63247;54.300;18.592;2023-04-23T07:35:48;22.14;52.19
67249;SHT31;63247;54.300;18.592;2023-04-23T07:38:14;21.98;50.43
67249;SHT31;63247;54.300;18.592;2023-04-23T07:40:39;23.04;50.05
67249;SHT31;63247;54.300;18.592;2023-04-23T07:43:04;23.03;49.30
67249;SHT31;63247;54.300;18.592;2023-04-23T07:45:30;22.59;49.61
67249;SHT31;63247;54.300;18.592;2023-04-23T07:47:55;22.93;50.32
67249;SHT31;63247;54.300;18.592;2023-04-23T07:50:21;23.24;50.26
67249;SHT31;63247;54.300;18.592;2023-04-23T07:52:47;23.21;48.61
67249;SHT31;63247;54.300;18.592;2023-04-23T07:55:12;23.50;48.74
67249;SHT31;63247;54.300;18.592;2023-04-23T07:57:37;23.03;49.13
67249;SHT31;63247;54.300;18.592;2023-04-23T08:00:04;22.45;50.60
67249;SHT31;63247;54.300;18.592;2023-04-23T08:02:29;23.14;49.84
67249;SHT31;63247;54.300;18.592;2023-04-23T08:04:54;23.40;48.86
67249;SHT31;63247;54.300;18.592;2023-04-23T08:07:20;23.28;48.29
67249;SHT31;63247;54.300;18.592;2023-04-23T08:09:45;24.19;47.99
67249;SHT31;63247;54.300;18.592;2023-04-23T08:12:11;23.99;48.14
67249;SHT31;63247;54.300;18.592;2023-04-23T08:14:36;24.19;47.00
67249;SHT31;63247;54.300;18.592;2023-04-23T08:17:02;23.60;48.14
67249;SHT31;63247;54.300;18.592;2023-04-23T08:19:27;24.88;46.97
67249;SHT31;63247;54.300;18.592;2023-04-23T08:21:56;25.43;47.17
67249;SHT31;63247;54.300;18.592;2023-04-23T08:24:21;25.58;46.64
67249;SHT31;63247;54.300;18.592;2023-04-23T08:26:47;25.73;46.18
67249;SHT31;63247;54.300;18.592;2023-04-23T08:29:12;26.41;44.80
67249;SHT31;63247;54.300;18.592;2023-04-23T08:31:37;25.52;45.81
67249;SHT31;63247;54.300;18.592;2023-04-23T08:34:03;24.56;47.21
67249;SHT31;63247;54.300;18.592;2023-04-23T08:36:30;24.35;48.32
67249;SHT31;63247;54.300;18.592;2023-04-23T08:38:56;24.61;47.25
67249;SHT31;63247;54.300;18.592;2023-04-23T08:41:22;24.36;47.91
67249;SHT31;63247;54.300;18.592;2023-04-23T08:43:56;24.94;47.28
67249;SHT31;63247;54.300;18.592;2023-04-23T08:46:27;26.47;44.79
67249;SHT31;63247;54.300;18.592;2023-04-23T08:48:58;25.89;44.42
67249;SHT31;63247;54.300;18.592;2023-04-23T08:51:25;24.54;46.04
67249;SHT31;63247;54.300;18.592;2023-04-23T08:53:55;24.18;47.64
67249;SHT31;63247;54.300;18.592;2023-04-23T08:56:23;24.15;47.54
67249;SHT31;63247;54.300;18.592;2023-04-23T08:58:49;24.95;46.53
67249;SHT31;63247;54.300;18.592;2023-04-23T09:01:16;24.61;46.88
67249;SHT31;63247;54.300;18.592;2023-04-23T09:03:42;24.67;46.92
67249;SHT31;63247;54.300;18.592;2023-04-23T09:06:08;25.02;46.47
67249;SHT31;63247;54.300;18.592;2023-04-23T09:08:33;25.89;46.14
67249;SHT31;63247;54.300;18.592;2023-04-23T09:11:00;24.99;46.35
67249;SHT31;63247;54.300;18.592;2023-04-23T09:13:27;25.63;45.13
67249;SHT31;63247;54.300;18.592;2023-04-23T09:15:53;25.50;46.39
67249;SHT31;63247;54.300;18.592;2023-04-23T09:18:19;24.77;46.82
67249;SHT31;63247;54.300;18.592;2023-04-23T09:20:44;24.94;48.00
67249;SHT31;63247;54.300;18.592;2023-04-23T09:23:13;24.77;47.04
67249;SHT31;63247;54.300;18.592;2023-04-23T09:25:38;25.32;47.08
67249;SHT31;63247;54.300;18.592;2023-04-23T09:28:06;25.65;45.81
67249;SHT31;63247;54.300;18.592;2023-04-23T09:30:38;24.50;46.54
67249;SHT31;63247;54.300;18.592;2023-04-23T09:33:04;25.15;46.62
67249;SHT31;63247;54.300;18.592;2023-04-23T09:35:31;24.40;46.97
67249;SHT31;63247;54.300;18.592;2023-04-23T09:38:00;24.16;47.67
67249;SHT31;63247;54.300;18.592;2023-04-23T09:40:29;24.39;45.98
67249;SHT31;63247;54.300;18.592;2023-04-23T09:42:55;24.26;47.36
67249;SHT31;63247;54.300;18.592;2023-04-23T09:45:20;25.25;45.71
67249;SHT31;63247;54.300;18.592;2023-04-23T09:47:54;24.60;46.89
67249;SHT31;63247;54.300;18.592;2023-04-23T09:50:37;24.92;47.53
67249;SHT31;63247;54.300;18.592;2023-04-23T09:53:04;24.59;46.55
67249;SHT31;63247;54.300;18.592;2023-04-23T09:55:34;24.66;46.10
67249;SHT31;63247;54.300;18.592;2023-04-23T09:58:06;24.70;47.39
67249;SHT31;63247;54.300;18.592;2023-04-23T10:00:36;24.94;46.61
67249;SHT31;63247;54.300;18.592;2023-04-23T10:03:03;24.36;46.11
67249;SHT31;63247;54.300;18.592;2023-04-23T10:05:29;23.47;46.71
67249;SHT31;63247;54.300;18.592;2023-04-23T10:07:55;23.14;48.92
67249;SHT31;63247;54.300;18.592;2023-04-23T10:10:24;23.04;49.92
67249;SHT31;63247;54.300;18.592;2023-04-23T10:12:51;22.91;51.49
67249;SHT31;63247;54.300;18.592;2023-04-23T10:15:18;22.77;49.90
67249;SHT31;63247;54.300;18.592;2023-04-23T10:17:45;22.31;49.80
67249;SHT31;63247;54.300;18.592;2023-04-23T10:20:11;22.71;50.81
67249;SHT31;63247;54.300;18.592;2023-04-23T10:22:38;22.54;49.96
67249;SHT31;63247;54.300;18.592;2023-04-23T10:25:09;22.71;49.01
67249;SHT31;63247;54.300;18.592;2023-04-23T10:27:37;22.48;50.47
67249;SHT31;63247;54.300;18.592;2023-04-23T10:30:05;22.43;50.19
67249;SHT31;63247;54.300;18.592;2023-04-23T10:32:32;22.38;49.53
67249;SHT31;63247;54.300;18.592;2023-04-23T10:34:57;22.28;49.51
67249;SHT31;63247;54.300;18.592;2023-04-23T10:37:23;22.37;48.95
67249;SHT31;63247;54.300;18.592;2023-04-23T10:39:53;22.98;49.48
67249;SHT31;63247;54.300;18.592;2023-04-23T10:42:19;22.40;49.06
67249;SHT31;63247;54.300;18.592;2023-04-23T10:44:45;22.24;49.09
67249;SHT31;63247;54.300;18.592;2023-04-23T10:47:14;22.59;49.15
67249;SHT31;63247;54.300;18.592;2023-04-23T10:49:40;22.49;48.11
67249;SHT31;63247;54.300;18.592;2023-04-23T10:52:14;22.28;47.65
67249;SHT31;63247;54.300;18.592;2023-04-23T10:54:41;22.30;48.04
67249;SHT31;63247;54.300;18.592;2023-04-23T10:57:08;22.34;47.54
67249;SHT31;63247;54.300;18.592;2023-04-23T10:59:35;22.81;48.67
67249;SHT31;63247;54.300;18.592;2023-04-23T11:02:12;22.82;47.80
67249;SHT31;63247;54.300;18.592;2023-04-23T11:04:45;22.55;47.05
67249;SHT31;63247;54.300;18.592;2023-04-23T11:07:12;22.27;45.99
67249;SHT31;63247;54.300;18.592;2023-04-23T11:09:46;22.28;46.21
67249;SHT31;63247;54.300;18.592;2023-04-23T11:14:47;22.49;46.41
67249;SHT31;63247;54.300;18.592;2023-04-23T11:17:15;22.49;45.30
67249;SHT31;63247;54.300;18.592;2023-04-23T11:19:43;22.61;45.01
67249;SHT31;63247;54.300;18.592;2023-04-23T11:22:42;22.61;44.86
67249;SHT31;63247;54.300;18.592;2023-04-23T11:25:13;22.79;43.60
67249;SHT31;63247;54.300;18.592;2023-04-23T11:27:43;22.75;41.56
67249;SHT31;63247;54.300;18.592;2023-04-23T11:32:43;22.54;40.89
67249;SHT31;63247;54.300;18.592;2023-04-23T11:35:11;22.38;40.21
67249;SHT31;63247;54.300;18.592;2023-04-23T11:37:38;22.69;41.86
67249;SHT31;63247;54.300;18.592;2023-04-23T11:40:06;22.48;39.30
67249;SHT31;63247;54.300;18.592;2023-04-23T11:42:46;22.85;40.48
67249;SHT31;63247;54.300;18.592;2023-04-23T11:45:25;23.31;39.75
67249;SHT31;63247;54.300;18.592;2023-04-23T11:47:55;22.71;37.71
67249;SHT31;63247;54.300;18.592;2023-04-23T11:50:23;22.61;39.96
67249;SHT31;63247;54.300;18.592;2023-04-23T11:52:49;22.49;40.14
67249;SHT31;63247;54.300;18.592;2023-04-23T11:55:15;22.34;39.90
67249;SHT31;63247;54.300;18.592;2023-04-23T11:57:48;22.51;40.76
67249;SHT31;63247;54.300;18.592;2023-04-23T12:00:16;22.47;40.00
67249;SHT31;63247;54.300;18.592;2023-04-23T12:02:59;22.58;39.97
67249;SHT31;63247;54.300;18.592;2023-04-23T12:05:39;22.64;40.59
67249;SHT31;63247;54.300;18.592;2023-04-23T12:08:10;22.59;41.76
67249;SHT31;63247;54.300;18.592;2023-04-23T12:10:53;22.38;41.54
67249;SHT31;63247;54.300;18.592;2023-04-23T12:13:24;22.51;41.33
67249;SHT31;63247;54.300;18.592;2023-04-23T12:15:56;22.76;42.39
67249;SHT31;63247;54.300;18.592;2023-04-23T12:18:38;22.62;41.66
67249;SHT31;63247;54.300;18.592;2023-04-23T12:21:07;22.86;42.49
67249;SHT31;63247;54.300;18.592;2023-04-23T12:23:32;22.77;43.31
67249;SHT31;63247;54.300;18.592;2023-04-23T12:26:00;22.68;42.82
67249;SHT31;63247;54.300;18.592;2023-04-23T12:28:26;22.52;43.40
67249;SHT31;63247;54.300;18.592;2023-04-23T12:30:51;22.82;43.97
67249;SHT31;63247;54.300;18.592;2023-04-23T12:33:17;22.54;42.42
67249;SHT31;63247;54.300;18.592;2023-04-23T12:35:44;22.59;42.84
67249;SHT31;63247;54.300;18.592;2023-04-23T12:38:29;22.51;43.11
67249;SHT31;63247;54.300;18.592;2023-04-23T12:40:58;22.73;43.53
67249;SHT31;63247;54.300;18.592;2023-04-23T12:43:25;22.69;43.49
67249;SHT31;63247;54.300;18.592;2023-04-23T12:45:51;22.66;42.33
67249;SHT31;63247;54.300;18.592;2023-04-23T12:48:18;22.59;42.70
67249;SHT31;63247;54.300;18.592;2023-04-23T12:50:44;22.58;42.26
67249;SHT31;63247;54.300;18.592;2023-04-23T12:53:10;22.54;42.35
67249;SHT31;63247;54.300;18.592;2023-04-23T12:55:35;22.73;42.97
67249;SHT31;63247;54.300;18.592;2023-04-23T12:58:04;22.81;43.30
67249;SHT31;63247;54.300;18.592;2023-04-23T13:00:29;22.83;42.68
67249;SHT31;63247;54.300;18.592;2023-04-23T13:02:55;22.48;41.55
67249;SHT31;63247;54.300;18.592;2023-04-23T13:05:21;22.56;41.99
67249;SHT31;63247;54.300;18.592;2023-04-23T13:07:46;22.56;42.05
67249;SHT31;63247;54.300;18.592;2023-04-23T13:10:11;22.59;42.12
67249;SHT31;63247;54.300;18.592;2023-04-23T13:12:37;22.66;41.95
67249;SHT31;63247;54.300;18.592;2023-04-23T13:15:03;22.76;43.64
67249;SHT31;63247;54.300;18.592;2023-04-23T13:17:38;22.66;43.06
67249;SHT31;63247;54.300;18.592;2023-04-23T13:20:04;22.81;43.36
67249;SHT31;63247;54.300;18.592;2023-04-23T13:22:30;22.69;41.61
67249;SHT31;63247;54.300;18.592;2023-04-23T13:24:59;22.98;43.05
67249;SHT31;63247;54.300;18.592;2023-04-23T13:27:26;22.85;41.99
67249;SHT31;63247;54.300;18.592;2023-04-23T13:29:52;22.68;42.39
67249;SHT31;63247;54.300;18.592;2023-04-23T13:32:17;22.64;42.82
67249;SHT31;63247;54.300;18.592;2023-04-23T13:34:43;22.82;42.40
67249;SHT31;63247;54.300;18.592;2023-04-23T13:37:08;22.85;42.64
67249;SHT31;63247;54.300;18.592;2023-04-23T13:39:35;22.64;42.13
67249;SHT31;63247;54.300;18.592;2023-04-23T13:42:00;22.58;42.25
67249;SHT31;63247;54.300;18.592;2023-04-23T13:44:29;22.76;44.34
67249;SHT31;63247;54.300;18.592;2023-04-23T13:46:54;22.75;42.17
67249;SHT31;63247;54.300;18.592;2023-04-23T13:49:22;22.89;42.40
67249;SHT31;63247;54.300;18.592;2023-04-23T13:51:48;22.77;41.51
67249;SHT31;63247;54.300;18.592;2023-04-23T13:54:13;22.65;41.34
67249;SHT31;63247;54.300;18.592;2023-04-23T13:56:38;22.58;42.08
67249;SHT31;63247;54.300;18.592;2023-04-23T13:59:05;22.75;42.47
67249;SHT31;63247;54.300;18.592;2023-04-23T14:01:30;22.71;41.72
67249;SHT31;63247;54.300;18.592;2023-04-23T14:03:55;22.79;42.61
67249;SHT31;63247;54.300;18.592;2023-04-23T14:06:21;22.68;42.18
67249;SHT31;63247;54.300;18.592;2023-04-23T14:08:47;22.71;42.87
67249;SHT31;63247;54.300;18.592;2023-04-23T14:11:12;22.92;44.19
67249;SHT31;63247;54.300;18.592;2023-04-23T14:13:37;22.79;43.55
67249;SHT31;63247;54.300;18.592;2023-04-23T14:16:03;22.95;44.18
67249;SHT31;63247;54.300;18.592;2023-04-23T14:18:28;22.76;42.16
67249;SHT31;63247;54.300;18.592;2023-04-23T14:20:54;22.82;44.09
67249;SHT31;63247;54.300;18.592;2023-04-23T14:25:52;22.58;42.25
67249;SHT31;63247;54.300;18.592;2023-04-23T14:28:28;22.51;41.69
67249;SHT31;63247;54.300;18.592;2023-04-23T14:30:59;22.64;42.07
67249;SHT31;63247;54.300;18.592;2023-04-23T14:33:25;22.48;41.81
67249;SHT31;63247;54.300;18.592;2023-04-23T14:35:50;22.58;42.01
67249;SHT31;63247;54.300;18.592;2023-04-23T14:38:16;22.48;41.78
67249;SHT31;63247;54.300;18.592;2023-04-23T14:40:42;22.62;42.33
67249;SHT31;63247;54.300;18.592;2023-04-23T14:43:07;22.76;42.95
67249;SHT31;63247;54.300;18.592;2023-04-23T14:45:32;22.64;42.58
67249;SHT31;63247;54.300;18.592;2023-04-23T14:47:58;22.58;44.03
67249;SHT31;63247;54.300;18.592;2023-04-23T14:50:24;22.45;45.13
67249;SHT31;63247;54.300;18.592;2023-04-23T14:52:50;22.49;45.60
67249;SHT31;63247;54.300;18.592;2023-04-23T14:55:16;22.47;44.96
67249;SHT31;63247;54.300;18.592;2023-04-23T14:57:42;22.47;45.60
67249;SHT31;63247;54.300;18.592;2023-04-23T15:00:07;22.49;43.89
67249;SHT31;63247;54.300;18.592;2023-04-23T15:02:37;22.44;44.13
67249;SHT31;63247;54.300;18.592;2023-04-23T15:05:03;22.40;45.65
67249;SHT31;63247;54.300;18.592;2023-04-23T15:07:29;22.30;46.45
67249;SHT31;63247;54.300;18.592;2023-04-23T15:09:57;22.49;47.34
67249;SHT31;63247;54.300;18.592;2023-04-23T15:12:48;22.44;44.18
67249;SHT31;63247;54.300;18.592;2023-04-23T15:15:36;22.13;43.36
67249;SHT31;63247;54.300;18.592;2023-04-23T15:18:02;22.14;43.70
67249;SHT31;63247;54.300;18.592;2023-04-23T15:20:33;22.06;44.84
67249;SHT31;63247;54.300;18.592;2023-04-23T15:22:59;21.96;43.99
67249;SHT31;63247;54.300;18.592;2023-04-23T15:25:24;21.90;44.05